El Dorado, CA (95623)

4:30 PM PDT on August 29, 2016 (GMT -0700)
Gold Country | | Change Station

Elev 1591 ft 38.66 °N, 120.86 °W | Updated 4 minutes ago

Clear
Clear
93.7 °F
Feels Like 90 °F
N
1.7
Wind Variable Wind from NNW

Today
High -- | Low -- °F
--% Chance of Precip.
Yesterday
High -- | Low -- °F
Precip. -- in
Pressure 30.09 in
Visibility 10.0 miles
Clouds Clear
Heat Index 90 °F
Dew Point 46 °F
Humidity 20%
Rainfall 0.00 in
Snow Depth Not available.
6:30 AM 7:37 PM
Waning Crescent, 6% visible
METAR KPVF 292255Z AUTO 00000KT 10SM CLR 30/04 A3009 RMK AO1
Pressure 30.09 in
Visibility 10.0 miles
Clouds Clear
Heat Index 90 °F
Dew Point 46 °F
Humidity 20%
Rainfall 0.00 in
Snow Depth Not available.
6:30 AM 7:37 PM
Waning Crescent, 6% visible
METAR KPVF 292255Z AUTO 00000KT 10SM CLR 30/04 A3009 RMK AO1

10-Day Weather Forecast

Almanac

Astronomy

Aug. 29, 2016 Rise Set
Actual Time
Civil Twilight
Nautical Twilight
Astronomical Twilight
Moon
Length of Visible Light
Length of Day
Tomorrow will be .
, % of the Moon is Illuminated

Today's Extremes

State Highs State Lows

Community

WunderPhotos

Upload Photos

1,935,695 photos uploaded!

WunderBlog® & News

Nearby

Air Quality

  Air Quality AQ Index Pollutant
Not available.

Snow Depth

Station Depth Elevation

Earthquake Activity

City Distance Mag. Time & Date
Minimum magnitude displayed is 2.5.

Coastal Water Temperatures

Place Temperature

Stations

Nearby Weather Stations

Station Location Temp. Windchill Dew Point Humidity Wind Precip. Elev Updated Type
                   

Watches & Warnings

There are currently no watches in effect.